Torda, Románia

2014 Szeptember 17 04:27 AM (EEST időzóna) (GMT +0300)
ICLUJCLU2 | Change Station
CLOSE
Current Station
Personal Weather Stations
Location: Cluj-Napoca - Aspar.ro, Cluj
Elevation: 1010 ft
Közeli meteorológiai állomások

Elev 1010 ft 46.78 °N, 23.72 °E | Updated 6 minutes ago

Clear
Derült
50.7 °F
Hőérzet 50.7 °F
N
1.0
Szél: változó Szél: from dél-délnyugati
Gusts 4.0 mph

Ma
High -- | Low -- °F
--% Csapadék valószínű
Tegnapi
High -- | Low -- °F
Precip. -- hvlyk.
7:04 AM 7:33 PM
utolsó negyed, 41% visible
Légnyomás 30.15 hvlyk.
Látótávolság -9999.0 mérföld
Felhők
Harmatpont 45 °F
Páratartalom 81%
Rainfall 0.00 hvlyk.
Hóréteg vastagsága Not available.
UV Not available.
Pollen Not available.
A levegő minősége Not available.
Flu Activity Not available.
METAR LRCL 170100Z 07004KT CAVOK 10/07 Q1021

More Conditions Fewer Conditions

Légnyomás 30.15 hvlyk.
Látótávolság -9999.0 mérföld
Felhők
Harmatpont 45 °F
Páratartalom 81%
Rainfall 0.00 hvlyk.
Hóréteg vastagsága Not available.
UV Not available.
Pollen Not available.
A levegő minősége Not available.
Flu Activity Not available.
METAR LRCL 170100Z 07004KT CAVOK 10/07 Q1021

More Conditions Fewer Conditions

10-Day Weather Forecast

Almanac

Csillagászat

Sep. 17, 2014 Kel Nyugszik
Tényleges idő 7:04 AM EEST 7:33 PM EEST
Civil alkony 6:34 AM EEST 8:03 PM EEST
Tengerészeti alkony 5:58 AM EEST 8:39 PM EEST
Csillagászati alkony 5:21 AM EEST 9:16 PM EEST
Hold 12:33 AM EEST 3:43 PM EEST
Látható fény időtartama 13h 28m
A nap hossza
12h 28m
Tomorrow will be 3m 16s shorter.
utolsó negyed, 41% of the Moon is Illuminated
Sep 16
utolsó negyed
Sep 24
Új
Oct 1
első negyed
Oct 8
telihold
Oct 15
utolsó negyed

Yesterday's Extremes

Country Highs Country Lows

Community

WunderPhotos

Upload Photos

1,753,943 Fotók feltöltve.

Nearby

A levegő minősége

Not available.

Hóréteg vastagsága

Not available.

Earthquake Activity

város Distance Mag. Time & Date
No recent earthquake activity has been reported nearby.
Minimum magnitude displayed is 2.5.

Coastal Water Temperatures

Hely Hőmérséklet
No Stations Reporting

Közeli meteorológiai állomások